Time;durP1;ratioP1;P1;durP2;ratioP2;P2;SDS_P1;SDS_P2;PMS_P1;PMS_P2;Temp;Humidity;BMP_temperature;BMP_pressure;BME280_temperature;BME280_humidity;BME280_pressure;Samples;Min_cycle;Max_cycle;Signal;HPM_P1;HPM_P2
2023/01/25 00:01:32;;;;;;;50.58;34.03;;;;;;;-0.53;99.30;103648.81;5091677;28;20382;-48
2023/01/25 00:03:58;;;;;;;59.22;38.22;;;;;;;-0.56;99.00;103651.84;5091563;28;20039;-45
2023/01/25 00:06:23;;;;;;;63.70;44.85;;;;;;;-0.61;99.51;103646.06;5091466;28;20024;-46
2023/01/25 00:08:49;;;;;;;54.25;35.17;;;;;;;-0.64;99.74;103643.66;5090311;28;20119;-44
2023/01/25 00:11:18;;;;;;;52.90;35.70;;;;;;;-0.66;100.00;103646.56;5091486;28;20028;-47
2023/01/25 00:13:44;;;;;;;52.78;34.63;;;;;;;-0.69;100.00;103651.47;5091450;28;20023;-47
2023/01/25 00:16:09;;;;;;;53.25;35.70;;;;;;;-0.75;100.00;103639.38;5091269;28;20032;-45
2023/01/25 00:18:35;;;;;;;54.17;37.45;;;;;;;-0.73;100.00;103647.34;5091345;28;20081;-48
2023/01/25 00:21:18;;;;;;;62.20;41.35;;;;;;;-0.78;100.00;103653.25;5091456;28;20020;-49
2023/01/25 00:23:43;;;;;;;57.92;38.20;;;;;;;-0.84;100.00;103646.59;5091612;28;20044;-49
2023/01/25 00:26:09;;;;;;;61.05;39.42;;;;;;;-0.85;100.00;103642.19;5091401;28;20020;-44
2023/01/25 00:28:34;;;;;;;61.65;39.00;;;;;;;-0.80;100.00;103644.41;5091136;28;20028;-44
2023/01/25 00:31:03;;;;;;;62.63;39.42;;;;;;;-0.72;100.00;103640.91;5091737;28;20024;-47
2023/01/25 00:34:20;;;;;;;58.10;37.95;;;;;;;-0.67;100.00;103635.84;5091150;28;20047;-46
2023/01/25 00:36:49;;;;;;;55.50;36.78;;;;;;;-0.65;100.00;103631.94;5045960;28;20075;-44
2023/01/25 00:39:15;;;;;;;54.05;36.55;;;;;;;-0.71;100.00;103639.88;5091131;28;20036;-45
2023/01/25 00:41:40;;;;;;;59.25;39.13;;;;;;;-0.72;100.00;103633.63;5083691;28;20035;-46
2023/01/25 00:44:06;;;;;;;52.50;35.38;;;;;;;-0.73;100.00;103631.03;5090760;28;20036;-45
2023/01/25 00:46:31;;;;;;;56.72;36.15;;;;;;;-0.73;100.00;103623.75;5091026;28;20548;-46
2023/01/25 00:48:56;;;;;;;55.80;37.45;;;;;;;-0.70;100.00;103628.00;5090869;28;20028;-47
2023/01/25 00:51:23;;;;;;;59.20;38.10;;;;;;;-0.75;100.00;103614.03;5090430;28;20059;-48
2023/01/25 00:53:48;;;;;;;61.20;39.03;;;;;;;-0.67;100.00;103631.25;5088496;28;20020;-45
2023/01/25 00:56:13;;;;;;;60.53;38.13;;;;;;;-0.67;100.00;103630.41;5091040;28;20063;-46
2023/01/25 00:58:40;;;;;;;58.22;39.65;;;;;;;-0.66;100.00;103634.84;5090702;28;20417;-45
2023/01/25 01:01:05;;;;;;;62.85;39.45;;;;;;;-0.66;100.00;103626.69;5090384;28;20032;-51
2023/01/25 01:03:31;;;;;;;62.53;38.95;;;;;;;-0.66;100.00;103622.09;5090517;28;20035;-45
2023/01/25 01:06:09;;;;;;;62.20;39.78;;;;;;;-0.61;100.00;103623.47;5090680;28;20048;-45
2023/01/25 01:08:38;;;;;;;60.40;40.33;;;;;;;-0.59;100.00;103615.97;5090637;28;20043;-45
2023/01/25 01:11:06;;;;;;;65.22;40.60;;;;;;;-0.63;100.00;103616.34;5090063;28;20052;-45
2023/01/25 01:13:32;;;;;;;58.45;37.90;;;;;;;-0.65;100.00;103618.34;5088632;28;20047;-47
2023/01/25 01:16:01;;;;;;;58.28;38.20;;;;;;;-0.64;100.00;103620.06;5090442;28;20032;-48
2023/01/25 01:18:27;;;;;;;57.47;38.30;;;;;;;-0.61;100.00;103621.59;5090799;28;20085;-46
2023/01/25 01:20:52;;;;;;;57.88;37.60;;;;;;;-0.64;100.00;103620.06;5088888;28;20036;-47
2023/01/25 01:23:19;;;;;;;62.35;37.40;;;;;;;-0.70;100.00;103617.97;5090217;28;20036;-47
2023/01/25 01:25:45;;;;;;;56.58;37.78;;;;;;;-0.74;100.00;103622.03;5090549;28;20523;-46
2023/01/25 01:28:11;;;;;;;58.00;38.55;;;;;;;-0.74;100.00;103618.47;5089969;28;20020;-45
2023/01/25 01:30:37;;;;;;;61.30;39.25;;;;;;;-0.77;100.00;103619.63;5090597;28;20111;-46
2023/01/25 01:33:02;;;;;;;57.15;37.70;;;;;;;-0.80;100.00;103614.50;5090448;28;20036;-45
2023/01/25 01:35:29;;;;;;;60.45;38.72;;;;;;;-0.83;100.00;103618.41;5089146;28;20367;-45
2023/01/25 01:37:54;;;;;;;67.07;42.53;;;;;;;-0.98;100.00;103620.03;5090379;28;20452;-45
2023/01/25 01:40:19;;;;;;;68.38;40.70;;;;;;;-1.02;100.00;103621.34;5089892;28;20120;-47
2023/01/25 01:43:01;;;;;;;67.10;41.83;;;;;;;-1.03;100.00;103617.78;5087071;28;20451;-46
2023/01/25 01:45:42;;;;;;;63.85;38.80;;;;;;;-0.99;100.00;103627.31;5090247;28;20488;-44
2023/01/25 01:48:20;;;;;;;62.25;40.22;;;;;;;-1.05;100.00;103625.25;5089873;28;20046;-47
2023/01/25 01:50:51;;;;;;;63.35;39.90;;;;;;;-1.08;100.00;103620.13;5090655;28;20039;-45
2023/01/25 01:53:17;;;;;;;63.88;39.80;;;;;;;-1.08;100.00;103614.69;5090574;28;20103;-45
2023/01/25 01:55:42;;;;;;;62.00;39.33;;;;;;;-1.03;100.00;103619.63;5090327;28;20850;-46
2023/01/25 01:58:08;;;;;;;62.53;38.80;;;;;;;-1.01;100.00;103615.78;5090550;28;20407;-45
2023/01/25 02:00:38;;;;;;;62.83;39.08;;;;;;;-1.00;100.00;103614.75;5090338;28;20066;-45
2023/01/25 02:03:03;;;;;;;70.50;40.78;;;;;;;-0.92;100.00;103619.38;5089564;28;20153;-46
2023/01/25 02:05:37;;;;;;;66.97;40.60;;;;;;;-0.88;100.00;103609.03;5090589;28;20472;-48
2023/01/25 02:08:05;;;;;;;69.40;41.53;;;;;;;-0.81;100.00;103612.84;5093844;28;20039;-45
2023/01/25 02:10:30;;;;;;;63.15;39.13;;;;;;;-0.80;100.00;103618.09;5093333;28;20028;-47
2023/01/25 02:12:57;;;;;;;65.68;39.45;;;;;;;-0.79;100.00;103610.78;5092635;28;20016;-45
2023/01/25 02:15:26;;;;;;;66.25;41.22;;;;;;;-0.85;100.00;103614.16;5093647;28;20032;-44
2023/01/25 02:17:52;;;;;;;68.75;42.83;;;;;;;-0.88;100.00;103612.63;5092374;28;20028;-45
2023/01/25 02:20:36;;;;;;;67.72;41.60;;;;;;;-0.89;100.00;103615.47;5093485;28;20112;-46
2023/01/25 02:23:28;;;;;;;66.15;41.72;;;;;;;-0.87;100.00;103608.03;5093571;28;20149;-44
2023/01/25 02:25:56;;;;;;;62.90;39.90;;;;;;;-0.86;100.00;103602.44;5093817;28;20423;-45
2023/01/25 02:28:31;;;;;;;67.13;39.95;;;;;;;-0.86;100.00;103590.72;5093280;28;20016;-46
2023/01/25 02:30:56;;;;;;;67.20;40.17;;;;;;;-0.84;100.00;103597.69;5093207;28;20040;-45
2023/01/25 02:33:26;;;;;;;63.33;38.95;;;;;;;-0.85;100.00;103590.53;5093233;28;20031;-44
2023/01/25 02:36:12;;;;;;;72.65;41.92;;;;;;;-0.86;100.00;103586.13;5093239;28;20028;-44
2023/01/25 02:38:41;;;;;;;71.72;43.80;;;;;;;-1.03;100.00;103582.47;5093298;28;20099;-47
2023/01/25 02:41:11;;;;;;;70.00;41.60;;;;;;;-0.98;100.00;103580.09;5085998;28;20024;-47
2023/01/25 02:43:37;;;;;;;68.90;41.05;;;;;;;-0.95;100.00;103585.22;5092794;28;20024;-46
2023/01/25 02:46:13;;;;;;;70.50;41.05;;;;;;;-0.96;100.00;103572.66;5092976;28;20031;-46
2023/01/25 02:48:38;;;;;;;73.35;41.13;;;;;;;-0.97;100.00;103581.81;5093236;28;20085;-46
2023/01/25 02:51:07;;;;;;;71.68;41.35;;;;;;;-1.05;100.00;103579.06;5093008;28;20115;-46
2023/01/25 02:53:32;;;;;;;70.82;41.28;;;;;;;-1.06;100.00;103576.50;5093104;28;20381;-47
2023/01/25 02:55:57;;;;;;;71.65;42.72;;;;;;;-1.11;100.00;103577.00;5092770;28;20491;-45
2023/01/25 02:58:24;;;;;;;76.22;43.28;;;;;;;-1.10;100.00;103584.97;5092586;28;20044;-49
2023/01/25 03:00:49;;;;;;;70.78;42.08;;;;;;;-1.07;100.00;103580.22;5092746;28;20070;-47
2023/01/25 03:03:15;;;;;;;73.50;43.85;;;;;;;-1.10;100.00;103579.53;5092697;28;20081;-51
2023/01/25 03:05:40;;;;;;;71.93;43.50;;;;;;;-1.08;100.00;103579.38;5092861;28;20032;-45
2023/01/25 03:08:05;;;;;;;73.78;42.63;;;;;;;-1.11;100.00;103572.41;5093150;28;20024;-45
2023/01/25 03:10:31;;;;;;;73.55;42.05;;;;;;;-1.11;100.00;103571.56;5092766;28;20024;-48
2023/01/25 03:12:56;;;;;;;71.25;40.90;;;;;;;-1.11;100.00;103572.41;5092650;28;20028;-46
2023/01/25 03:15:21;;;;;;;72.65;43.50;;;;;;;-1.09;100.00;103561.38;5092298;28;20028;-48
2023/01/25 03:17:46;;;;;;;68.93;41.80;;;;;;;-1.08;100.00;103571.22;5092416;28;20414;-48
2023/01/25 03:20:12;;;;;;;74.40;44.22;;;;;;;-1.10;100.00;103565.94;5092215;28;20071;-47
2023/01/25 03:22:37;;;;;;;72.75;41.60;;;;;;;-1.08;100.00;103568.50;5091892;28;20115;-50
2023/01/25 03:25:03;;;;;;;70.53;42.00;;;;;;;-1.03;100.00;103566.16;5092298;28;20036;-48
2023/01/25 03:27:29;;;;;;;67.00;41.47;;;;;;;-1.01;100.00;103564.16;5092339;28;20039;-47
2023/01/25 03:29:55;;;;;;;68.90;42.80;;;;;;;-1.01;100.00;103545.13;5092175;28;20107;-45
2023/01/25 03:32:20;;;;;;;73.70;41.72;;;;;;;-0.98;100.00;103541.22;5092202;28;20535;-47
2023/01/25 03:34:46;;;;;;;70.30;41.58;;;;;;;-1.01;100.00;103539.69;5092441;28;20547;-44
2023/01/25 03:37:11;;;;;;;70.57;41.63;;;;;;;-1.03;100.00;103547.16;5091844;28;20032;-47
2023/01/25 03:39:36;;;;;;;72.68;43.88;;;;;;;-1.05;100.00;103532.03;5091984;28;20028;-49
2023/01/25 03:42:01;;;;;;;70.63;42.63;;;;;;;-1.08;100.00;103541.31;5084770;28;20496;-49
2023/01/25 03:44:27;;;;;;;69.13;41.35;;;;;;;-1.10;100.00;103538.78;5090525;28;20024;-47
2023/01/25 03:46:52;;;;;;;71.10;41.15;;;;;;;-1.07;100.00;103542.19;5090464;28;20032;-46
2023/01/25 03:49:18;;;;;;;73.78;42.50;;;;;;;-1.05;100.00;103532.03;5090450;28;20068;-47
2023/01/25 03:51:43;;;;;;;74.25;43.25;;;;;;;-1.03;100.00;103525.41;5089942;28;20047;-46
2023/01/25 03:54:09;;;;;;;70.15;41.10;;;;;;;-1.03;100.00;103525.41;5091687;28;20031;-47
2023/01/25 03:56:35;;;;;;;76.75;43.60;;;;;;;-0.98;100.00;103539.34;5091653;28;20468;-45
2023/01/25 03:59:00;;;;;;;77.57;43.60;;;;;;;-0.96;100.00;103540.03;5091429;28;20475;-48
2023/01/25 04:01:25;;;;;;;79.30;44.85;;;;;;;-0.96;100.00;103540.03;5091668;28;20039;-46
2023/01/25 04:03:51;;;;;;;76.20;42.20;;;;;;;-0.90;100.00;103546.69;5091724;28;20498;-50
2023/01/25 04:06:16;;;;;;;76.63;45.38;;;;;;;-0.90;100.00;103533.09;5091529;28;20024;-48
2023/01/25 04:08:41;;;;;;;74.65;42.47;;;;;;;-0.87;100.00;103540.06;5091615;28;20036;-45
2023/01/25 04:11:08;;;;;;;75.82;43.30;;;;;;;-0.86;100.00;103537.22;5090030;28;20024;-47
2023/01/25 04:13:35;;;;;;;76.88;44.70;;;;;;;-0.87;100.00;103537.34;5091499;28;20390;-45
2023/01/25 04:16:04;;;;;;;74.07;44.05;;;;;;;-0.84;100.00;103528.88;5091495;28;20116;-43
2023/01/25 04:18:29;;;;;;;82.93;47.10;;;;;;;-0.84;100.00;103523.44;5091265;28;20036;-45
2023/01/25 04:20:56;;;;;;;86.63;46.13;;;;;;;-0.92;100.00;103524.25;5091324;28;20030;-45
2023/01/25 04:23:22;;;;;;;83.68;46.15;;;;;;;-0.99;100.00;103515.06;5091426;28;20096;-45
2023/01/25 04:26:00;;;;;;;80.05;43.95;;;;;;;-0.99;100.00;103510.47;5091295;28;20436;-47
2023/01/25 04:28:26;;;;;;;84.35;45.47;;;;;;;-0.97;100.00;103510.31;5090860;28;20100;-44
2023/01/25 04:30:53;;;;;;;81.05;44.05;;;;;;;-0.95;100.00;103508.28;5090975;28;20040;-44
2023/01/25 04:33:18;;;;;;;85.65;46.50;;;;;;;-0.95;100.00;103521.88;5091091;28;20031;-44
2023/01/25 04:35:44;;;;;;;86.93;47.08;;;;;;;-0.98;100.00;103514.88;5091174;28;20161;-46
2023/01/25 04:38:10;;;;;;;85.32;46.08;;;;;;;-0.96;100.00;103517.47;5084008;28;20356;-46
2023/01/25 04:40:35;;;;;;;89.32;48.22;;;;;;;-0.97;100.00;103513.03;5090268;28;20067;-46
2023/01/25 04:43:00;;;;;;;90.72;46.38;;;;;;;-0.90;100.00;103522.22;5091027;28;20020;-47
2023/01/25 04:45:26;;;;;;;86.47;47.42;;;;;;;-0.87;100.00;103515.63;5090920;28;20063;-46
2023/01/25 04:47:56;;;;;;;91.43;46.97;;;;;;;-0.93;100.00;103510.84;5091167;28;20039;-45
2023/01/25 04:50:22;;;;;;;91.47;46.45;;;;;;;-0.92;100.00;103510.66;5091149;28;20024;-46
2023/01/25 04:52:47;;;;;;;91.35;47.40;;;;;;;-1.01;100.00;103504.38;5090962;28;20082;-46
2023/01/25 04:55:12;;;;;;;90.70;48.83;;;;;;;-1.07;100.00;103502.28;5090712;28;20399;-49
2023/01/25 04:57:38;;;;;;;90.75;47.70;;;;;;;-1.02;100.00;103496.34;5090476;28;20070;-48
2023/01/25 05:00:04;;;;;;;91.55;48.08;;;;;;;-1.07;100.00;103501.44;5089210;28;20060;-47
2023/01/25 05:02:29;;;;;;;96.70;48.88;;;;;;;-1.15;100.00;103511.25;5090849;28;20040;-48
2023/01/25 05:04:54;;;;;;;90.47;48.35;;;;;;;-1.19;100.00;103499.00;5090688;28;20383;-47
2023/01/25 05:07:20;;;;;;;91.75;48.58;;;;;;;-1.16;100.00;103495.09;5089414;28;20036;-48
2023/01/25 05:09:45;;;;;;;91.25;48.53;;;;;;;-1.17;100.00;103490.69;5090816;28;20043;-46
2023/01/25 05:12:12;;;;;;;89.10;46.67;;;;;;;-1.18;100.00;103486.28;5089743;28;20040;-44
2023/01/25 05:14:38;;;;;;;86.30;46.13;;;;;;;-1.11;100.00;103477.31;5090304;28;20429;-47
2023/01/25 05:17:05;;;;;;;92.78;47.60;;;;;;;-1.08;100.00;103488.88;5089573;28;20036;-46
2023/01/25 05:19:31;;;;;;;99.45;49.28;;;;;;;-1.06;100.00;103489.56;5090411;28;20024;-49
2023/01/25 05:21:56;;;;;;;100.55;51.53;;;;;;;-1.09;100.00;103482.59;5090581;28;20038;-46
2023/01/25 05:24:22;;;;;;;103.28;50.25;;;;;;;-1.15;100.00;103477.78;5090488;28;20017;-44
2023/01/25 05:27:00;;;;;;;95.68;48.53;;;;;;;-1.06;100.00;103478.69;5090131;28;20046;-48
2023/01/25 05:29:26;;;;;;;96.65;48.58;;;;;;;-1.10;100.00;103481.72;5088944;28;20101;-45
2023/01/25 05:31:52;;;;;;;100.75;49.50;;;;;;;-1.13;100.00;103473.88;5087566;28;20041;-44
2023/01/25 05:34:17;;;;;;;100.63;49.80;;;;;;;-1.14;100.00;103487.66;5088186;28;20024;-46
2023/01/25 05:36:42;;;;;;;102.47;51.40;;;;;;;-1.20;100.00;103480.16;5090031;28;20559;-46
2023/01/25 05:39:08;;;;;;;96.30;48.42;;;;;;;-1.18;100.00;103478.13;5090833;28;20031;-46
2023/01/25 05:41:33;;;;;;;96.80;47.42;;;;;;;-1.14;100.00;103483.09;5087843;28;20016;-45
2023/01/25 05:43:59;;;;;;;97.03;49.03;;;;;;;-1.18;100.00;103478.13;5093112;28;20395;-49
2023/01/25 05:46:26;;;;;;;99.78;49.97;;;;;;;-1.20;100.00;103474.72;5094079;28;20463;-47
2023/01/25 05:48:51;;;;;;;96.53;47.88;;;;;;;-1.19;100.00;103477.25;5093155;28;20476;-48
2023/01/25 05:51:16;;;;;;;98.40;48.67;;;;;;;-1.19;100.00;103479.16;5093097;28;20028;-45
2023/01/25 05:53:42;;;;;;;103.35;49.90;;;;;;;-1.19;100.00;103477.25;5090297;28;20024;-48
2023/01/25 05:56:09;;;;;;;102.82;48.75;;;;;;;-1.15;100.00;103478.66;5093551;28;20492;-45
2023/01/25 05:58:35;;;;;;;99.32;49.20;;;;;;;-1.10;100.00;103470.03;5093208;28;20080;-46
2023/01/25 06:01:02;;;;;;;97.57;49.70;;;;;;;-1.09;100.00;103474.44;5093594;28;20024;-46
2023/01/25 06:03:27;;;;;;;105.00;48.95;;;;;;;-1.06;100.00;103462.38;5092631;28;20103;-45
2023/01/25 06:05:57;;;;;;;102.35;49.60;;;;;;;-1.06;100.00;103476.81;5093837;28;20593;-48
2023/01/25 06:08:23;;;;;;;101.85;49.35;;;;;;;-1.04;100.00;103473.94;5093590;28;20035;-46
2023/01/25 06:10:48;;;;;;;101.40;48.08;;;;;;;-1.04;100.00;103474.78;5093180;28;20020;-50
2023/01/25 06:13:13;;;;;;;108.55;52.15;;;;;;;-1.05;100.00;103477.69;5093572;28;20082;-45
2023/01/25 06:15:39;;;;;;;97.00;49.95;;;;;;;-1.05;100.00;103475.81;5093677;28;20451;-47
2023/01/25 06:18:04;;;;;;;104.10;51.28;;;;;;;-1.07;100.00;103463.41;5093794;28;20111;-47
2023/01/25 06:20:29;;;;;;;108.57;50.00;;;;;;;-1.12;100.00;103477.47;5093040;28;20036;-50
2023/01/25 06:22:54;;;;;;;107.53;50.33;;;;;;;-1.13;100.00;103479.31;5092881;28;20032;-45
2023/01/25 06:25:20;;;;;;;101.75;50.85;;;;;;;-1.10;100.00;103480.88;5092227;28;20491;-49
2023/01/25 06:27:45;;;;;;;102.40;50.10;;;;;;;-1.07;100.00;103469.66;5092586;28;20070;-50
2023/01/25 06:30:11;;;;;;;105.03;51.08;;;;;;;-1.07;100.00;103474.25;5092672;28;20077;-47
2023/01/25 06:32:36;;;;;;;108.20;52.03;;;;;;;-1.10;100.00;103462.72;5092568;28;20099;-46
2023/01/25 06:35:02;;;;;;;103.90;49.05;;;;;;;-1.08;100.00;103465.25;5092323;28;20777;-49
2023/01/25 06:37:27;;;;;;;106.72;49.90;;;;;;;-1.10;100.00;103462.72;5088224;28;20027;-49
2023/01/25 06:39:52;;;;;;;106.45;48.40;;;;;;;-1.08;100.00;103464.41;5092467;28;20036;-47
2023/01/25 06:42:18;;;;;;;95.72;47.35;;;;;;;-1.05;100.00;103461.38;5092245;28;20395;-51
2023/01/25 06:44:43;;;;;;;101.72;49.00;;;;;;;-1.00;100.00;103467.16;5092085;28;20040;-45
2023/01/25 06:47:10;;;;;;;98.07;49.35;;;;;;;-0.99;100.00;103466.16;5091468;28;20034;-45
2023/01/25 06:49:35;;;;;;;103.30;48.50;;;;;;;-0.96;100.00;103469.38;5090225;28;20427;-47
2023/01/25 06:52:00;;;;;;;105.78;51.05;;;;;;;-0.91;100.00;103463.47;5090758;28;20184;-49
2023/01/25 06:54:26;;;;;;;98.05;48.53;;;;;;;-0.88;100.00;103470.41;5091003;28;20055;-46
2023/01/25 06:56:51;;;;;;;98.10;48.30;;;;;;;-0.88;100.00;103465.00;5090623;28;20012;-45
2023/01/25 06:59:17;;;;;;;101.70;47.85;;;;;;;-0.82;100.00;103462.47;5090759;28;20076;-45
2023/01/25 07:01:42;;;;;;;96.45;48.22;;;;;;;-0.82;100.00;103470.63;5090836;28;20471;-45
2023/01/25 07:04:10;;;;;;;101.13;46.58;;;;;;;-0.88;100.00;103462.25;5090812;28;20407;-47
2023/01/25 07:06:36;;;;;;;103.85;47.67;;;;;;;-0.92;100.00;103459.03;5090843;28;20046;-45
2023/01/25 07:09:09;;;;;;;96.45;48.13;;;;;;;-1.00;100.00;103456.28;5090850;28;20446;-48
2023/01/25 07:11:35;;;;;;;96.95;46.35;;;;;;;-1.00;100.00;103459.00;5090451;28;20164;-46
2023/01/25 07:14:01;;;;;;;101.78;48.20;;;;;;;-1.05;100.00;103455.94;5090673;28;20096;-46
2023/01/25 07:16:26;;;;;;;98.30;47.65;;;;;;;-1.09;100.00;103466.28;5090429;28;20028;-45
2023/01/25 07:18:53;;;;;;;105.03;49.05;;;;;;;-1.14;100.00;103474.06;5090429;28;20042;-44
2023/01/25 07:21:22;;;;;;;99.25;48.67;;;;;;;-1.18;100.00;103472.69;5090345;28;20030;-46
2023/01/25 07:23:51;;;;;;;97.82;48.85;;;;;;;-1.20;100.00;103469.28;5090386;28;20028;-45
2023/01/25 07:26:22;;;;;;;97.28;47.60;;;;;;;-1.22;100.00;103465.88;5090304;28;20020;-46
2023/01/25 07:28:48;;;;;;;97.93;48.83;;;;;;;-1.26;100.00;103462.63;5089964;28;20068;-46
2023/01/25 07:31:15;;;;;;;96.22;48.13;;;;;;;-1.23;100.00;103461.44;5088666;28;20552;-46
2023/01/25 07:33:40;;;;;;;93.47;47.60;;;;;;;-1.24;100.00;103462.47;5083357;28;20036;-45
2023/01/25 07:36:08;;;;;;;91.80;47.30;;;;;;;-1.24;100.00;103452.47;5090903;28;20156;-44
2023/01/25 07:38:35;;;;;;;93.50;46.10;;;;;;;-1.23;100.00;103442.44;5090649;28;20056;-45
2023/01/25 07:41:00;;;;;;;95.22;46.72;;;;;;;-1.24;100.00;103444.31;5086409;28;20024;-44
2023/01/25 07:43:26;;;;;;;99.68;49.05;;;;;;;-1.24;100.00;103440.72;5089748;28;20142;-44
2023/01/25 07:45:51;;;;;;;92.03;47.15;;;;;;;-1.24;100.00;103446.16;5088830;28;20059;-45
2023/01/25 07:48:19;;;;;;;96.63;48.72;;;;;;;-1.27;100.00;103439.19;5089482;28;20043;-45
2023/01/25 07:51:10;;;;;;;102.03;49.17;;;;;;;-1.28;100.00;103445.66;5092028;28;20500;-44
2023/01/25 07:53:35;;;;;;;94.10;47.45;;;;;;;-1.29;100.00;103446.66;5091111;28;20039;-44
2023/01/25 07:56:00;;;;;;;94.85;45.78;;;;;;;-1.29;100.00;103444.81;5090489;28;20043;-43
2023/01/25 07:58:25;;;;;;;98.43;46.67;;;;;;;-1.29;100.00;103447.53;5091717;28;20427;-45
2023/01/25 08:00:51;;;;;;;91.28;46.97;;;;;;;-1.27;100.00;103447.34;5085936;28;20028;-45
2023/01/25 08:03:16;;;;;;;94.35;45.95;;;;;;;-1.20;100.00;103448.41;5086649;28;20054;-50
2023/01/25 08:05:44;;;;;;;94.95;45.50;;;;;;;-1.13;100.00;103444.00;5090959;28;20032;-46
2023/01/25 08:08:10;;;;;;;89.78;46.10;;;;;;;-1.15;100.00;103450.63;5091770;28;20120;-46
2023/01/25 08:10:35;;;;;;;100.47;46.67;;;;;;;-1.21;100.00;103440.41;5091031;28;20097;-46
2023/01/25 08:13:00;;;;;;;94.30;46.33;;;;;;;-1.26;100.00;103438.19;5091102;28;20379;-46
2023/01/25 08:15:26;;;;;;;92.72;44.90;;;;;;;-1.28;100.00;103440.22;5091525;28;20032;-46
2023/01/25 08:17:51;;;;;;;88.80;47.08;;;;;;;-1.30;100.00;103440.38;5088327;28;20024;-45
2023/01/25 08:20:16;;;;;;;90.95;45.50;;;;;;;-1.30;100.00;103444.94;5089918;28;20478;-47
2023/01/25 08:22:42;;;;;;;92.35;45.65;;;;;;;-1.30;100.00;103444.94;5087812;28;20077;-47
2023/01/25 08:25:07;;;;;;;90.35;46.72;;;;;;;-1.28;100.00;103434.78;5087683;28;20031;-47
2023/01/25 08:27:32;;;;;;;95.70;47.28;;;;;;;-1.27;100.00;103425.63;5089901;28;20031;-46
2023/01/25 08:29:58;;;;;;;97.28;47.40;;;;;;;-1.28;100.00;103430.22;5089480;28;20058;-48
2023/01/25 08:32:23;;;;;;;91.82;45.33;;;;;;;-1.24;100.00;103425.31;5077536;28;20024;-47
2023/01/25 08:34:48;;;;;;;102.18;48.70;;;;;;;-1.23;100.00;103421.56;5081461;28;20378;-47
2023/01/25 08:37:14;;;;;;;98.22;47.47;;;;;;;-1.16;100.00;103424.47;5089426;28;20032;-48
2023/01/25 08:39:39;;;;;;;97.03;47.92;;;;;;;-1.10;100.00;103430.09;5089480;28;20383;-47
2023/01/25 08:42:05;;;;;;;95.40;45.55;;;;;;;-1.09;100.00;103425.53;5082144;28;20040;-48
2023/01/25 08:44:30;;;;;;;98.07;47.20;;;;;;;-1.03;100.00;103424.00;5089389;28;20566;-48
2023/01/25 08:46:55;;;;;;;99.82;48.03;;;;;;;-1.00;100.00;103429.13;5089179;28;20032;-46
2023/01/25 08:49:21;;;;;;;99.15;47.40;;;;;;;-0.99;100.00;103431.66;5083071;28;20036;-49
2023/01/25 08:51:47;;;;;;;99.18;48.15;;;;;;;-1.02;100.00;103433.84;5087739;28;20039;-48
2023/01/25 08:54:12;;;;;;;91.40;47.97;;;;;;;-1.15;100.00;103426.16;5088921;28;20031;-48
2023/01/25 08:56:39;;;;;;;99.60;48.72;;;;;;;-1.26;100.00;103432.75;5086296;28;20048;-46
2023/01/25 08:59:05;;;;;;;103.30;47.58;;;;;;;-1.33;100.00;103418.13;5086470;28;20028;-48
2023/01/25 09:01:31;;;;;;;98.07;45.63;;;;;;;-1.22;100.00;103409.66;5087240;28;20089;-51
2023/01/25 09:03:57;;;;;;;104.72;50.22;;;;;;;-1.22;100.00;103406.13;5089747;28;20104;-49
2023/01/25 09:06:22;;;;;;;97.88;48.05;;;;;;;-1.24;100.00;103411.72;5087598;28;20025;-49
2023/01/25 09:08:47;;;;;;;107.05;48.58;;;;;;;-1.28;100.00;103402.19;5088980;28;20035;-49
2023/01/25 09:11:16;;;;;;;104.88;50.33;;;;;;;-1.34;100.00;103413.72;5087315;28;20111;-49
2023/01/25 09:13:42;;;;;;;99.90;47.15;;;;;;;-1.36;100.00;103404.88;5086434;28;20059;-48
2023/01/25 09:16:11;;;;;;;100.35;48.35;;;;;;;-1.39;100.00;103399.75;5089634;28;20035;-48
2023/01/25 09:18:38;;;;;;;97.65;47.72;;;;;;;-1.37;100.00;103395.00;5089490;28;20028;-45
2023/01/25 09:21:22;;;;;;;106.43;48.38;;;;;;;-1.24;100.00;103400.00;5089915;28;20065;-48
2023/01/25 09:23:49;;;;;;;98.25;46.25;;;;;;;-1.17;100.00;103401.91;5090174;28;20531;-46
2023/01/25 09:26:15;;;;;;;95.88;46.90;;;;;;;-1.14;100.00;103390.72;5090018;28;20028;-47
2023/01/25 09:28:42;;;;;;;102.38;47.20;;;;;;;-1.11;100.00;103406.66;5091173;28;20031;-45
2023/01/25 09:31:09;;;;;;;96.00;46.53;;;;;;;-1.14;100.00;103400.72;5090991;28;20031;-46
2023/01/25 09:33:37;;;;;;;95.45;43.75;;;;;;;-1.03;100.00;103410.41;5092484;28;20027;-46
2023/01/25 09:36:02;;;;;;;101.38;45.72;;;;;;;-1.02;100.00;103410.28;5089590;28;20506;-47
2023/01/25 09:38:28;;;;;;;101.78;46.58;;;;;;;-1.06;100.00;103403.44;5092013;28;20028;-45
2023/01/25 09:41:23;;;;;;;95.32;45.92;;;;;;;-1.08;100.00;103399.19;5092374;28;20185;-48
2023/01/25 09:43:54;;;;;;;96.20;45.58;;;;;;;-1.03;100.00;103404.97;5092508;28;20024;-47
2023/01/25 09:46:42;;;;;;;95.35;45.22;;;;;;;-1.04;100.00;103392.44;5092579;28;20111;-45
2023/01/25 09:49:32;;;;;;;100.20;47.97;;;;;;;-1.07;100.00;103396.31;5072044;28;20036;-45
2023/01/25 09:52:25;;;;;;;94.30;45.85;;;;;;;-1.11;100.00;103390.34;5071851;28;20449;-45
2023/01/25 09:54:51;;;;;;;98.78;45.15;;;;;;;-1.07;100.00;103396.31;5073827;28;20131;-47
2023/01/25 09:57:25;;;;;;;100.88;48.92;;;;;;;-1.06;100.00;103378.16;5092204;28;20031;-45
2023/01/25 09:59:50;;;;;;;;;;;;;;;-0.93;100.00;103396.69;5091997;28;20540;-48
2023/01/25 10:02:23;;;;;;;;;;;;;;;-0.84;100.00;103401.97;5092914;28;19920;-46
2023/01/25 10:04:51;;;;;;;;;;;;;;;-0.82;100.00;103391.78;5092131;28;19918;-47
2023/01/25 10:07:52;;;;;;;;;;;;;;;-0.77;100.00;103390.47;5092671;28;19975;-48
2023/01/25 10:10:22;;;;;;;;;;;;;;;-0.69;100.00;103383.16;5009605;28;19917;-48
2023/01/25 10:12:48;;;;;;;;;;;;;;;-0.68;100.00;103378.56;5077470;28;20352;-45
2023/01/25 10:15:18;;;;;;;;;;;;;;;-0.64;100.00;103379.91;5091929;28;19916;-45
2023/01/25 10:17:43;;;;;;;;;;;;;;;-0.56;99.89;103379.09;5092640;28;19916;-48
2023/01/25 10:20:11;;;;;;;;;;;;;;;-0.56;99.77;103384.53;5092693;28;20294;-47
2023/01/25 10:22:42;;;;;;;;;;;;;;;-0.61;100.00;103379.59;5092506;28;20363;-45
2023/01/25 10:25:23;;;;;;;;;;;;;;;-0.67;100.00;103372.97;5090083;28;19919;-46
2023/01/25 10:27:57;;;;;;;;;;;;;;;-0.68;100.00;103376.69;5090268;28;19924;-47
2023/01/25 10:30:26;;;;;;;;;;;;;;;-0.63;100.00;103368.91;5087727;28;19985;-45
2023/01/25 10:32:52;;;;;;;;;;;;;;;-0.43;99.51;103365.84;5091940;28;19916;-45
2023/01/25 10:35:20;;;;;;;;;;;;;;;-0.42;99.04;103372.13;5083220;28;19922;-47
2023/01/25 10:37:45;;;;;;;;;;;;;;;-0.47;99.42;103365.31;5092224;28;19911;-46
2023/01/25 10:40:11;;;;;;;;;;;;;;;-0.47;99.54;103356.31;5088680;28;19915;-46
2023/01/25 10:42:38;;;;;;;;;;;;;;;-0.60;99.41;103348.66;5092224;28;19912;-46
2023/01/25 10:45:10;;;;;;;;;;;;;;;-0.65;99.99;103341.03;5091173;28;20063;-47
2023/01/25 10:47:36;;;;;;;;;;;;;;;-0.67;100.00;103337.63;5091342;28;19916;-48
2023/01/25 10:50:02;;;;;;;;;;;;;;;-0.67;100.00;103329.47;5092140;28;19981;-47
2023/01/25 10:52:29;;;;;;;;;;;;;;;-0.64;100.00;103322.84;5092064;28;19912;-46
2023/01/25 10:55:00;;;;;;;;;;;;;;;-0.68;100.00;103326.91;5091438;28;20019;-44
2023/01/25 10:57:25;;;;;;;;;;;;;;;-0.63;100.00;103313.66;5091568;28;19947;-46
2023/01/25 10:59:51;;;;;;;;;;;;;;;-0.60;100.00;103305.16;5090768;28;20352;-47
2023/01/25 11:02:31;;;;;;;;;;;;;;;-0.51;98.85;103301.44;5091077;28;19915;-47
2023/01/25 11:04:57;;;;;;;;;;;;;;;-0.46;98.70;103298.19;5071304;28;19954;-47
2023/01/25 11:07:27;;;;;;;;;;;;;;;-0.47;98.89;103296.50;5071214;28;19916;-46
2023/01/25 11:09:53;;;;;;;;;;;;;;;-0.41;98.17;103295.78;5071160;28;19916;-52
2023/01/25 11:12:19;;;;;;;;;;;;;;;-0.38;97.68;103283.75;5073396;22;20944;-49